Shannon Hills, Arkansas
Current Conditions -  °F | °C
As of 5:53 PM on Monday 24 Nov 2014 (Local Time) from KLIT Reporting Station
Scattered Clouds Scattered Clouds  
Wind Chill: 52°   Ceiling: Unl
Heat Index: 52°   Visibility: 10mi
Dew Point: 22°   Wind: 6mph
Humidity: 31%   Direction: 270°W
Pressure: 29.99"   Gusts: NA
Location:  34.5918°N, 92.381°W
Report Text: KLIT 242353Z 27005KT 10SM FEW150 SCT200 11/M06 A2999 RMK AO2 SLP158 T01111056 10161 20111 51024
Loading
Personal Weather Stations






























Interactive Weather Map New forecast layout! Learn more

10-Day Weather Forecast

Advertisements
Track Severe Weather on mobile